Mount Gilead, OH (43338)

6:25 AM EST on February 10, 2016 (GMT -0500)
Shauck - OH 314 at US 42 | | Change Station
CLOSE
Current Station
Personal Weather Station
Location: Mount Gilead, OH
Elevation: 1365 ft
Nearby Weather Stations

Elev 1365 ft 40.62 °N, 82.66 °W | Updated 8 seconds ago

Overcast
Overcast
15.6 °F
Feels Like 16 °F
N
1.8
Wind Variable Wind from SSW
Gusts 2.5 mph

Today
High -- | Low -- °F
--% Chance of Precip.
Yesterday
High -- | Low -- °F
Precip. -- in
Pressure 29.82 in
Visibility 2.0 miles
Clouds Scattered Clouds 1500 ft
Overcast 2100 ft
Windchill 16 °F
Dew Point 11 °F
Humidity 82%
Rainfall 0.00 in
Snow Depth Not available.
7:31 AM 5:59 PM
Waxing Crescent, 5% visible
SPECI KMNN 101100Z AUTO 26010KT 2SM -SN SCT015 OVC021 M08/M12 A2982 RMK AO2 P0000 T10781117 TSNO
Pressure 29.82 in
Visibility 2.0 miles
Clouds Scattered Clouds 1500 ft
Overcast 2100 ft
Windchill 16 °F
Dew Point 11 °F
Humidity 82%
Rainfall 0.00 in
Snow Depth Not available.
7:31 AM 5:59 PM
Waxing Crescent, 5% visible
SPECI KMNN 101100Z AUTO 26010KT 2SM -SN SCT015 OVC021 M08/M12 A2982 RMK AO2 P0000 T10781117 TSNO

10-Day Weather Forecast

Almanac

Astronomy

Feb. 10, 2016 Rise Set
Actual Time
Civil Twilight
Nautical Twilight
Astronomical Twilight
Moon
Length of Visible Light
Length of Day
Tomorrow will be .
, % of the Moon is Illuminated

Today's Extremes

State Highs State Lows

Community

WunderPhotos

Upload Photos

1,891,830 photos uploaded!

WunderBlog® & News

Nearby

Air Quality

  Air Quality AQ Index Pollutant
Not available.

Snow Depth

Station Depth Elevation

Earthquake Activity

City Distance Mag. Time & Date
Minimum magnitude displayed is 2.5.

Coastal Water Temperatures

Place Temperature

Stations

Nearby Weather Stations

Station Location Temp. Windchill Dew Point Humidity Wind Precip. Elev Updated Type
                   

Watches & Warnings

There are currently no watches in effect.